Time;durP1;ratioP1;P1;durP2;ratioP2;P2;SDS_P1;SDS_P2;PMS_P1;PMS_P2;Temp;Humidity;BMP_temperature;BMP_pressure;BME280_temperature;BME280_humidity;BME280_pressure;Samples;Min_cycle;Max_cycle;Signal;HPM_P1;HPM_P2
2024/01/13 00:00:49;;;;;;;4.03;3.58;;;-0.70;1.00;;;;;;5065822;28;20039;-76
2024/01/13 00:03:15;;;;;;;1.55;1.45;;;-0.70;1.00;;;;;;5066583;28;20033;-76
2024/01/13 00:05:42;;;;;;;2.45;1.85;;;-0.70;1.00;;;;;;5074240;28;20498;-77
2024/01/13 00:08:08;;;;;;;3.92;3.20;;;-0.70;1.00;;;;;;5079116;28;20036;-76
2024/01/13 00:10:34;;;;;;;1.35;1.33;;;-0.70;1.00;;;;;;5066975;28;20044;-75
2024/01/13 00:13:00;;;;;;;3.83;3.15;;;-0.70;1.00;;;;;;5081466;28;20048;-77
2024/01/13 00:15:26;;;;;;;2.80;2.70;;;-0.70;1.00;;;;;;5072357;28;20036;-77
2024/01/13 00:17:52;;;;;;;2.72;1.60;;;-0.70;1.00;;;;;;5074272;28;20032;-77
2024/01/13 00:20:18;;;;;;;5.43;2.80;;;-0.70;1.00;;;;;;5058970;28;20040;-77
2024/01/13 00:22:47;;;;;;;2.22;1.85;;;-0.70;1.00;;;;;;5075653;28;20029;-77
2024/01/13 00:25:15;;;;;;;6.93;3.88;;;-0.70;1.00;;;;;;5076434;28;20032;-77
2024/01/13 00:27:41;;;;;;;2.97;2.38;;;-0.70;1.00;;;;;;5082139;28;20035;-77
2024/01/13 00:30:08;;;;;;;3.42;3.13;;;-0.70;1.00;;;;;;5082909;28;20028;-77
2024/01/13 00:32:34;;;;;;;3.40;2.60;;;-0.70;1.00;;;;;;5080319;28;20040;-77
2024/01/13 00:35:00;;;;;;;7.43;3.70;;;-0.70;1.00;;;;;;5081254;28;20035;-77
2024/01/13 00:37:26;;;;;;;2.53;2.15;;;-0.70;1.00;;;;;;5080899;28;20040;-75
2024/01/13 00:39:52;;;;;;;1.58;0.77;;;-0.70;1.00;;;;;;5079812;28;20047;-77
2024/01/13 00:42:18;;;;;;;4.47;4.07;;;-0.80;1.00;;;;;;5083066;28;20047;-77
2024/01/13 00:44:44;;;;;;;4.60;2.65;;;-0.80;1.00;;;;;;5081245;28;20386;-77
2024/01/13 00:47:11;;;;;;;1.67;1.58;;;-0.80;1.00;;;;;;5079578;28;20034;-76
2024/01/13 00:49:37;;;;;;;3.08;2.78;;;-0.80;1.00;;;;;;5080457;28;20047;-77
2024/01/13 00:52:03;;;;;;;6.80;3.15;;;-0.80;1.00;;;;;;5083322;28;20036;-77
2024/01/13 00:54:30;;;;;;;4.22;3.65;;;-0.80;1.00;;;;;;5080951;28;20049;-77
2024/01/13 00:56:56;;;;;;;5.60;3.28;;;-0.80;1.00;;;;;;5080738;28;20393;-77
2024/01/13 00:59:22;;;;;;;3.08;2.70;;;-0.80;1.00;;;;;;5051518;28;20047;-77
2024/01/13 01:01:48;;;;;;;1.75;1.55;;;-0.80;1.00;;;;;;5061237;28;20032;-77
2024/01/13 01:04:15;;;;;;;16.00;4.53;;;-0.80;1.00;;;;;;5081051;28;20379;-77
2024/01/13 01:06:41;;;;;;;1.23;0.93;;;-0.80;1.00;;;;;;5080531;28;20247;-76
2024/01/13 01:09:07;;;;;;;3.42;3.13;;;-0.80;1.00;;;;;;5079897;28;20819;-77
2024/01/13 01:11:33;;;;;;;2.50;2.00;;;-0.80;1.00;;;;;;5062341;28;20044;-77
2024/01/13 01:13:59;;;;;;;4.38;3.60;;;-0.70;1.00;;;;;;5079116;28;20408;-77
2024/01/13 01:16:26;;;;;;;2.17;2.08;;;-0.80;1.00;;;;;;5078003;28;20099;-77
2024/01/13 01:18:52;;;;;;;4.57;3.05;;;-0.80;1.00;;;;;;5065807;28;20029;-78
2024/01/13 01:21:18;;;;;;;9.13;5.03;;;-0.80;1.00;;;;;;5080511;28;20028;-77
2024/01/13 01:23:45;;;;;;;5.07;4.00;;;-0.80;1.00;;;;;;5078013;28;20028;-77
2024/01/13 01:26:11;;;;;;;5.38;3.28;;;-0.80;1.00;;;;;;5068888;28;20043;-77
2024/01/13 01:28:37;;;;;;;7.65;3.17;;;-0.80;1.00;;;;;;5079383;28;20028;-77
2024/01/13 01:31:04;;;;;;;3.10;2.58;;;-0.80;1.00;;;;;;5080542;28;20423;-77
2024/01/13 01:33:30;;;;;;;6.28;3.15;;;-0.80;1.00;;;;;;5079602;28;20032;-77
2024/01/13 01:35:56;;;;;;;7.47;2.97;;;-0.80;1.00;;;;;;5078721;28;20377;-77
2024/01/13 01:38:23;;;;;;;3.58;2.35;;;-0.80;1.00;;;;;;5080985;28;20457;-76
2024/01/13 01:40:53;;;;;;;5.63;2.42;;;-0.80;1.00;;;;;;5084940;28;20032;-75
2024/01/13 01:43:21;;;;;;;5.90;3.15;;;-0.80;1.00;;;;;;5080391;28;20072;-77
2024/01/13 01:45:54;;;;;;;2.38;2.17;;;-0.80;1.00;;;;;;5084778;28;20068;-75
2024/01/13 01:48:34;;;;;;;3.60;2.25;;;-0.80;1.00;;;;;;5079351;28;20036;-76
2024/01/13 01:51:00;;;;;;;3.40;2.92;;;-0.80;1.00;;;;;;5083640;28;20035;-76
2024/01/13 01:53:27;;;;;;;7.38;4.63;;;-0.80;1.00;;;;;;5081028;28;20466;-76
2024/01/13 01:55:54;;;;;;;2.55;2.35;;;-0.80;1.00;;;;;;5079228;28;20032;-76
2024/01/13 01:58:21;;;;;;;10.45;2.92;;;-0.80;1.00;;;;;;5078544;28;20542;-77
2024/01/13 02:00:48;;;;;;;4.32;3.95;;;-0.80;1.00;;;;;;5079611;28;20028;-77
2024/01/13 02:03:14;;;;;;;6.55;3.40;;;-0.70;1.00;;;;;;5082062;28;20453;-76
2024/01/13 02:05:41;;;;;;;6.93;4.43;;;-0.80;1.00;;;;;;5076294;28;20052;-77
2024/01/13 02:08:07;;;;;;;2.08;1.98;;;-0.70;1.00;;;;;;5080959;28;20032;-77
2024/01/13 02:10:33;;;;;;;1.67;1.63;;;-0.70;1.00;;;;;;5080429;28;20032;-77
2024/01/13 02:13:00;;;;;;;3.72;2.75;;;-0.80;1.00;;;;;;5080410;28;20036;-76
2024/01/13 02:15:26;;;;;;;5.13;2.88;;;-0.80;1.00;;;;;;5077341;28;20362;-76
2024/01/13 02:17:52;;;;;;;4.20;3.17;;;-0.80;1.00;;;;;;5079287;28;20039;-76
2024/01/13 02:20:18;;;;;;;2.35;2.15;;;-0.70;1.00;;;;;;5080014;28;20033;-76
2024/01/13 02:22:44;;;;;;;3.15;2.95;;;-0.80;1.00;;;;;;5067892;28;20044;-76
2024/01/13 02:25:11;;;;;;;6.93;3.60;;;-0.80;1.00;;;;;;5051357;28;20035;-76
2024/01/13 02:27:37;;;;;;;1.88;1.75;;;-0.80;1.00;;;;;;5078002;28;20044;-75
2024/01/13 02:30:04;;;;;;;1.33;1.25;;;-0.80;1.00;;;;;;5066882;28;20388;-76
2024/01/13 02:32:30;;;;;;;1.90;1.80;;;-0.80;1.00;;;;;;5080429;28;20040;-76
2024/01/13 02:34:56;;;;;;;1.33;1.25;;;-0.70;1.00;;;;;;5060669;28;20044;-76
2024/01/13 02:37:22;;;;;;;3.97;2.47;;;-0.80;1.00;;;;;;5059786;28;20056;-77
2024/01/13 02:39:49;;;;;;;5.18;2.97;;;-0.80;1.00;;;;;;5080897;28;20029;-77
2024/01/13 02:42:15;;;;;;;3.70;2.55;;;-0.70;1.00;;;;;;5081853;28;20043;-77
2024/01/13 02:44:41;;;;;;;2.03;1.92;;;-0.80;1.00;;;;;;5059158;28;20039;-76
2024/01/13 02:47:07;;;;;;;1.40;0.85;;;-0.80;1.00;;;;;;5079658;28;20028;-76
2024/01/13 02:49:33;;;;;;;1.88;1.73;;;-0.80;1.00;;;;;;5076718;28;20055;-77
2024/01/13 02:51:59;;;;;;;2.30;1.90;;;-0.80;1.00;;;;;;5068522;28;20444;-76
2024/01/13 02:54:25;;;;;;;11.15;4.25;;;-0.80;1.00;;;;;;5076876;28;20044;-76
2024/01/13 02:56:52;;;;;;;5.18;3.20;;;-0.80;1.00;;;;;;5081534;28;20043;-77
2024/01/13 02:59:18;;;;;;;0.98;0.98;;;-0.80;1.00;;;;;;5077591;28;20037;-76
2024/01/13 03:01:44;;;;;;;0.50;0.50;;;-0.80;1.00;;;;;;5077936;28;20051;-77
2024/01/13 03:04:10;;;;;;;1.55;1.45;;;-0.80;1.00;;;;;;5059940;28;20059;-77
2024/01/13 03:06:36;;;;;;;3.22;2.97;;;-0.80;1.00;;;;;;5063994;28;20063;-77
2024/01/13 03:09:02;;;;;;;2.08;1.92;;;-0.80;1.00;;;;;;5080753;28;20033;-76
2024/01/13 03:11:28;;;;;;;3.38;2.55;;;-0.80;1.00;;;;;;5066405;28;20500;-76
2024/01/13 03:13:55;;;;;;;1.92;1.27;;;-0.80;1.00;;;;;;5079370;28;20381;-77
2024/01/13 03:16:21;;;;;;;2.42;2.22;;;-0.70;1.00;;;;;;5078518;28;20044;-77
2024/01/13 03:18:47;;;;;;;2.78;1.98;;;-0.80;1.00;;;;;;5076652;28;20032;-77
2024/01/13 03:21:14;;;;;;;3.05;1.75;;;-0.80;1.00;;;;;;5079298;28;20037;-76
2024/01/13 03:23:40;;;;;;;3.58;2.28;;;-0.80;1.00;;;;;;5080135;28;20036;-77
2024/01/13 03:26:06;;;;;;;3.40;1.40;;;-0.80;1.00;;;;;;5078905;28;20032;-77
2024/01/13 03:28:32;;;;;;;1.83;1.73;;;-0.80;1.00;;;;;;5078086;28;20380;-77
2024/01/13 03:30:58;;;;;;;0.88;0.88;;;-0.80;1.00;;;;;;5075774;28;20384;-76
2024/01/13 03:33:25;;;;;;;6.25;3.95;;;-0.80;1.00;;;;;;5079212;28;20036;-75
2024/01/13 03:35:51;;;;;;;2.80;2.17;;;-0.80;1.00;;;;;;5076991;28;20384;-76
2024/01/13 03:38:17;;;;;;;0.60;0.60;;;-0.80;1.00;;;;;;5082097;28;20043;-77
2024/01/13 03:40:43;;;;;;;2.00;1.90;;;-0.80;1.00;;;;;;5059265;28;20032;-77
2024/01/13 03:43:09;;;;;;;1.08;0.82;;;-0.80;1.00;;;;;;5065383;28;20370;-77
2024/01/13 03:45:35;;;;;;;1.08;0.98;;;-0.80;1.00;;;;;;5078831;28;20033;-77
2024/01/13 03:48:01;;;;;;;1.48;1.38;;;-0.80;1.00;;;;;;5078566;28;20036;-78
2024/01/13 03:50:27;;;;;;;2.58;2.28;;;-0.80;1.00;;;;;;5078374;28;20033;-77
2024/01/13 03:52:54;;;;;;;0.65;0.65;;;-0.80;1.00;;;;;;5080536;28;20044;-77
2024/01/13 03:55:20;;;;;;;2.25;2.10;;;-0.80;1.00;;;;;;5077363;28;20032;-77
2024/01/13 03:57:46;;;;;;;3.00;2.03;;;-0.80;1.00;;;;;;5063439;28;20040;-77
2024/01/13 04:00:12;;;;;;;6.78;2.47;;;-0.80;1.00;;;;;;5078185;28;20044;-76
2024/01/13 04:02:38;;;;;;;2.90;2.70;;;-0.80;1.00;;;;;;5080693;28;20393;-77
2024/01/13 04:05:05;;;;;;;4.55;2.95;;;-0.80;1.00;;;;;;5081599;28;20024;-77
2024/01/13 04:07:31;;;;;;;1.85;1.75;;;-0.80;1.00;;;;;;5084287;28;20040;-78
2024/01/13 04:09:57;;;;;;;1.10;1.08;;;-0.80;1.00;;;;;;5083940;28;20028;-78
2024/01/13 04:12:23;;;;;;;3.10;2.80;;;-0.80;1.00;;;;;;5078822;28;20028;-77
2024/01/13 04:14:49;;;;;;;2.40;2.20;;;-0.80;1.00;;;;;;5082757;28;20385;-77
2024/01/13 04:17:16;;;;;;;5.82;4.38;;;-0.80;1.00;;;;;;5085039;28;20449;-77
2024/01/13 04:19:42;;;;;;;2.13;2.03;;;-0.80;1.00;;;;;;5068179;28;20386;-76
2024/01/13 04:22:09;;;;;;;5.70;2.30;;;-0.80;1.00;;;;;;5081488;28;20028;-77
2024/01/13 04:24:35;;;;;;;4.68;1.75;;;-0.80;1.00;;;;;;5062568;28;20065;-75
2024/01/13 04:27:01;;;;;;;3.75;3.28;;;-0.80;1.00;;;;;;5066358;28;20044;-76
2024/01/13 04:29:27;;;;;;;1.60;1.40;;;-0.80;1.00;;;;;;5079183;28;20028;-75
2024/01/13 04:31:53;;;;;;;7.40;3.40;;;-0.80;1.00;;;;;;5084579;28;20051;-75
2024/01/13 04:34:19;;;;;;;1.52;1.42;;;-0.80;1.00;;;;;;5079166;28;20033;-77
2024/01/13 04:36:46;;;;;;;1.35;1.33;;;-0.80;1.00;;;;;;5080502;28;20484;-76
2024/01/13 04:39:12;;;;;;;4.18;3.88;;;-0.80;1.00;;;;;;5082627;28;20370;-77
2024/01/13 04:41:41;;;;;;;1.92;1.83;;;-0.80;1.00;;;;;;5080810;28;20396;-77
2024/01/13 04:44:08;;;;;;;3.13;2.92;;;-0.80;1.00;;;;;;5078727;28;20036;-78
2024/01/13 04:46:35;;;;;;;2.80;2.63;;;-0.80;1.00;;;;;;5067187;28;20047;-77
2024/01/13 04:49:01;;;;;;;5.22;2.53;;;-0.80;1.00;;;;;;5081727;28;20040;-78
2024/01/13 04:51:28;;;;;;;4.03;3.13;;;-0.80;1.00;;;;;;5082414;28;20036;-77
2024/01/13 04:53:56;;;;;;;5.93;5.40;;;-0.80;1.00;;;;;;5081680;28;20032;-77
2024/01/13 04:56:23;;;;;;;7.75;3.63;;;-0.80;1.00;;;;;;5078442;28;20397;-77
2024/01/13 04:58:50;;;;;;;5.25;2.65;;;-0.80;1.00;;;;;;5083999;28;20045;-77
2024/01/13 05:01:16;;;;;;;6.43;5.65;;;-0.80;1.00;;;;;;5081262;28;20960;-77
2024/01/13 05:03:42;;;;;;;6.53;5.15;;;-0.80;1.00;;;;;;5079594;28;20028;-74
2024/01/13 05:06:08;;;;;;;22.73;8.35;;;-0.80;1.00;;;;;;5076593;28;20400;-77
2024/01/13 05:08:34;;;;;;;5.00;3.90;;;-0.80;1.00;;;;;;5081476;28;20037;-77
2024/01/13 05:11:00;;;;;;;10.07;4.80;;;-0.80;1.00;;;;;;5079906;28;20044;-77
2024/01/13 05:13:27;;;;;;;7.50;3.95;;;-0.80;1.00;;;;;;5084792;28;20051;-77
2024/01/13 05:15:53;;;;;;;5.03;2.22;;;-0.90;1.00;;;;;;5082672;28;20048;-76
2024/01/13 05:18:19;;;;;;;4.82;4.15;;;-0.90;1.00;;;;;;5083408;28;20044;-76
2024/01/13 05:20:45;;;;;;;28.77;4.25;;;-0.90;1.00;;;;;;5080271;28;20047;-76
2024/01/13 05:23:12;;;;;;;3.63;2.58;;;-0.90;1.00;;;;;;5080133;28;20528;-76
2024/01/13 05:25:39;;;;;;;4.25;3.95;;;-0.90;1.00;;;;;;5079570;28;20376;-77
2024/01/13 05:28:05;;;;;;;1.73;1.63;;;-0.90;1.00;;;;;;5080820;28;20469;-76
2024/01/13 05:30:32;;;;;;;3.80;3.38;;;-0.90;1.00;;;;;;5080198;28;20043;-76
2024/01/13 05:32:59;;;;;;;2.30;1.48;;;-0.90;1.00;;;;;;5079570;28;20059;-76
2024/01/13 05:35:26;;;;;;;11.10;6.68;;;-0.90;1.00;;;;;;5080067;28;20044;-76
2024/01/13 05:37:52;;;;;;;4.53;4.13;;;-0.90;1.00;;;;;;5085278;28;20048;-77
2024/01/13 05:40:21;;;;;;;3.50;3.20;;;-0.90;1.00;;;;;;5078377;28;20035;-77
2024/01/13 05:42:47;;;;;;;4.22;3.33;;;-0.90;1.00;;;;;;5082738;28;20032;-76
2024/01/13 05:45:14;;;;;;;3.22;2.13;;;-0.90;1.00;;;;;;5081144;28;20028;-76
2024/01/13 05:47:40;;;;;;;3.20;3.00;;;-0.90;1.00;;;;;;5077566;28;20025;-76
2024/01/13 05:50:07;;;;;;;6.70;4.43;;;-0.90;1.00;;;;;;5082747;28;20028;-76
2024/01/13 05:52:33;;;;;;;3.72;3.00;;;-0.90;1.00;;;;;;5082054;28;20500;-76
2024/01/13 05:55:00;;;;;;;7.13;5.57;;;-0.90;1.00;;;;;;5077994;28;20040;-76
2024/01/13 05:57:26;;;;;;;5.13;4.60;;;-1.00;1.00;;;;;;5080179;28;20396;-76
2024/01/13 05:59:52;;;;;;;5.45;5.05;;;-0.90;1.00;;;;;;5081696;28;20032;-77
2024/01/13 06:02:18;;;;;;;12.48;6.72;;;-0.90;1.00;;;;;;5084089;28;20057;-76
2024/01/13 06:04:46;;;;;;;7.93;6.45;;;-0.90;1.00;;;;;;5069717;28;20040;-76
2024/01/13 06:07:14;;;;;;;3.45;3.15;;;-0.90;1.00;;;;;;5065670;28;20043;-76
2024/01/13 06:09:40;;;;;;;6.70;3.63;;;-0.90;1.00;;;;;;5082772;28;20043;-76
2024/01/13 06:12:11;;;;;;;9.32;4.75;;;-0.90;1.00;;;;;;5079620;28;20040;-77
2024/01/13 06:14:39;;;;;;;12.48;8.45;;;-0.90;1.00;;;;;;5078066;28;20025;-77
2024/01/13 06:17:05;;;;;;;24.27;8.18;;;-0.90;1.00;;;;;;5081330;28;20036;-76
2024/01/13 06:19:32;;;;;;;5.20;4.35;;;-0.90;1.00;;;;;;5077837;28;20374;-77
2024/01/13 06:21:58;;;;;;;10.40;5.07;;;-0.90;1.00;;;;;;5083640;28;20024;-76
2024/01/13 06:24:24;;;;;;;2.92;1.73;;;-0.90;1.00;;;;;;5077242;28;20032;-77
2024/01/13 06:26:50;;;;;;;5.32;4.43;;;-0.90;1.00;;;;;;5080439;28;20059;-77
2024/01/13 06:29:16;;;;;;;5.03;4.43;;;-0.90;1.00;;;;;;5082308;28;20393;-76
2024/01/13 06:31:43;;;;;;;2.50;2.35;;;-0.90;1.00;;;;;;5078383;28;20059;-76
2024/01/13 06:34:09;;;;;;;4.57;4.00;;;-0.80;1.00;;;;;;5077591;28;20032;-77
2024/01/13 06:36:35;;;;;;;3.17;3.03;;;-0.90;1.00;;;;;;5080292;28;20055;-77
2024/01/13 06:39:01;;;;;;;2.15;2.05;;;-0.80;1.00;;;;;;5081135;28;20043;-77
2024/01/13 06:41:28;;;;;;;2.92;2.45;;;-0.90;1.00;;;;;;5079576;28;20047;-77
2024/01/13 06:43:54;;;;;;;2.22;1.88;;;-0.80;1.00;;;;;;5082077;28;20032;-76
2024/01/13 06:46:20;;;;;;;1.75;1.65;;;-0.80;1.00;;;;;;5053408;28;20035;-77
2024/01/13 06:48:47;;;;;;;3.00;2.80;;;-0.90;1.00;;;;;;5083661;28;20031;-77
2024/01/13 06:51:14;;;;;;;1.58;1.48;;;-0.80;1.00;;;;;;5079481;28;20461;-76
2024/01/13 06:53:40;;;;;;;2.55;2.35;;;-0.80;1.00;;;;;;5077278;28;20031;-76
2024/01/13 06:56:08;;;;;;;3.67;3.45;;;-0.80;1.00;;;;;;5078395;28;20024;-76
2024/01/13 06:58:34;;;;;;;9.65;3.92;;;-0.80;1.00;;;;;;5080791;28;20040;-76
2024/01/13 07:01:01;;;;;;;3.72;3.08;;;-0.80;1.00;;;;;;5077444;28;20047;-76
2024/01/13 07:03:27;;;;;;;1.55;1.45;;;-0.80;1.00;;;;;;5078393;28;20045;-77
2024/01/13 07:05:53;;;;;;;2.35;2.15;;;-0.80;1.00;;;;;;5074003;28;20036;-77
2024/01/13 07:08:19;;;;;;;7.43;3.80;;;-0.80;1.00;;;;;;5079208;28;20466;-77
2024/01/13 07:10:48;;;;;;;2.53;1.55;;;-0.80;1.00;;;;;;5077503;28;20051;-77
2024/01/13 07:13:15;;;;;;;3.15;2.92;;;-0.80;1.00;;;;;;5081109;28;20036;-75
2024/01/13 07:15:41;;;;;;;2.70;2.55;;;-0.80;1.00;;;;;;5076258;28;20036;-75
2024/01/13 07:18:08;;;;;;;3.50;2.60;;;-0.80;1.00;;;;;;5077856;28;20049;-75
2024/01/13 07:20:34;;;;;;;3.25;2.95;;;-0.80;1.00;;;;;;5082199;28;20031;-76
2024/01/13 07:23:00;;;;;;;2.30;2.03;;;-0.80;1.00;;;;;;5076755;28;20028;-75
2024/01/13 07:25:27;;;;;;;11.25;2.65;;;-0.80;1.00;;;;;;5074528;28;20393;-75
2024/01/13 07:27:53;;;;;;;4.40;3.45;;;-0.80;1.00;;;;;;5060010;28;20043;-76
2024/01/13 07:30:19;;;;;;;4.43;2.95;;;-0.80;1.00;;;;;;5078247;28;20035;-76
2024/01/13 07:32:45;;;;;;;5.88;2.85;;;-0.80;1.00;;;;;;5076861;28;20633;-75
2024/01/13 07:35:11;;;;;;;2.70;2.50;;;-0.80;1.00;;;;;;5063708;28;20489;-76
2024/01/13 07:37:39;;;;;;;7.30;3.47;;;-0.80;1.00;;;;;;5085448;28;20512;-75
2024/01/13 07:40:05;;;;;;;6.38;4.85;;;-0.80;1.00;;;;;;5081192;28;20040;-78
2024/01/13 07:42:32;;;;;;;5.05;2.90;;;-0.80;1.00;;;;;;5084519;28;20405;-78
2024/01/13 07:44:59;;;;;;;3.55;2.97;;;-0.70;1.00;;;;;;5079003;28;20457;-77
2024/01/13 07:47:25;;;;;;;3.15;2.85;;;-0.80;1.00;;;;;;5082032;28;20040;-77
2024/01/13 07:49:51;;;;;;;2.55;2.30;;;-0.70;1.00;;;;;;5081758;28;20421;-77
2024/01/13 07:52:18;;;;;;;2.28;2.08;;;-0.70;1.00;;;;;;5066037;28;20051;-77
2024/01/13 07:54:44;;;;;;;6.50;5.68;;;-0.70;1.00;;;;;;5081675;28;20028;-77
2024/01/13 07:57:12;;;;;;;7.22;3.38;;;-0.70;1.00;;;;;;5082790;28;20036;-77
2024/01/13 07:59:38;;;;;;;6.78;6.13;;;-0.70;1.00;;;;;;5081055;28;20469;-77
2024/01/13 08:02:05;;;;;;;4.25;3.20;;;-0.70;1.00;;;;;;5082670;28;20100;-77
2024/01/13 08:04:31;;;;;;;3.13;2.83;;;-0.70;1.00;;;;;;5079075;28;20036;-77
2024/01/13 08:06:57;;;;;;;3.40;3.13;;;-0.70;1.00;;;;;;5081332;28;20382;-77
2024/01/13 08:09:23;;;;;;;9.95;1.92;;;-0.70;1.00;;;;;;5079009;28;20043;-77
2024/01/13 08:11:49;;;;;;;3.13;2.88;;;-0.70;1.00;;;;;;5081284;28;20029;-77
2024/01/13 08:14:16;;;;;;;3.55;2.10;;;-0.70;1.00;;;;;;5080098;28;20028;-77
2024/01/13 08:16:42;;;;;;;4.18;2.67;;;-0.70;1.00;;;;;;5081310;28;20532;-77
2024/01/13 08:19:10;;;;;;;4.53;3.88;;;-0.70;1.00;;;;;;5081460;28;20388;-77
2024/01/13 08:21:36;;;;;;;9.18;6.72;;;-0.70;1.00;;;;;;5083018;28;20047;-77
2024/01/13 08:24:03;;;;;;;4.15;3.50;;;-0.60;1.00;;;;;;5083066;28;20043;-78
2024/01/13 08:26:30;;;;;;;2.05;1.92;;;-0.60;1.00;;;;;;5080060;28;20043;-77
2024/01/13 08:28:56;;;;;;;2.80;2.53;;;-0.60;1.00;;;;;;5085059;28;20044;-77
2024/01/13 08:31:22;;;;;;;6.75;5.28;;;-0.60;1.00;;;;;;5083126;28;20043;-78
2024/01/13 08:33:50;;;;;;;3.05;2.85;;;-0.60;1.00;;;;;;5067566;28;20050;-76
2024/01/13 08:36:17;;;;;;;5.05;4.53;;;-0.60;1.00;;;;;;5059718;28;20041;-76
2024/01/13 08:38:44;;;;;;;7.28;4.28;;;-0.50;1.00;;;;;;5063091;28;20059;-76
2024/01/13 08:41:11;;;;;;;1.77;1.67;;;-0.50;1.00;;;;;;5062171;28;20040;-77
2024/01/13 08:43:37;;;;;;;1.45;1.38;;;-0.50;1.00;;;;;;5078444;28;20366;-77
2024/01/13 08:46:03;;;;;;;9.15;4.72;;;-0.50;1.00;;;;;;5082207;28;20385;-76
2024/01/13 08:48:31;;;;;;;2.92;2.72;;;-0.50;1.00;;;;;;5079882;28;20029;-76
2024/01/13 08:50:57;;;;;;;9.40;3.85;;;-0.50;1.00;;;;;;5079048;28;20039;-77
2024/01/13 08:53:23;;;;;;;2.70;2.17;;;-0.50;99.90;;;;;;5079411;28;20468;-76
2024/01/13 08:55:49;;;;;;;1.77;1.67;;;-0.50;99.90;;;;;;5079309;28;20040;-77
2024/01/13 08:58:15;;;;;;;11.23;2.15;;;-0.40;99.90;;;;;;5080105;28;20039;-77
2024/01/13 09:00:41;;;;;;;4.32;2.30;;;-0.40;99.90;;;;;;5065937;28;20055;-75
2024/01/13 09:03:08;;;;;;;2.80;1.60;;;-0.40;99.90;;;;;;5069279;28;20045;-77
2024/01/13 09:05:34;;;;;;;5.38;4.88;;;-0.40;99.90;;;;;;5076873;28;20095;-77
2024/01/13 09:08:00;;;;;;;2.95;2.28;;;-0.40;99.90;;;;;;5085865;28;20044;-76
2024/01/13 09:10:26;;;;;;;7.10;4.88;;;-0.40;99.90;;;;;;5088037;28;20043;-77
2024/01/13 09:12:52;;;;;;;5.03;3.50;;;-0.40;99.90;;;;;;5078177;28;20033;-77
2024/01/13 09:15:19;;;;;;;4.57;3.03;;;-0.40;99.90;;;;;;5087402;28;20048;-77
2024/01/13 09:17:45;;;;;;;5.47;3.67;;;-0.40;99.90;;;;;;5083110;28;20112;-77
2024/01/13 09:20:12;;;;;;;4.30;2.05;;;-0.40;99.90;;;;;;5082217;28;20029;-76
2024/01/13 09:22:39;;;;;;;6.38;2.72;;;-0.40;99.90;;;;;;5079975;28;20036;-77
2024/01/13 09:25:05;;;;;;;8.82;3.13;;;-0.30;99.90;;;;;;5080352;28;20381;-77
2024/01/13 09:27:32;;;;;;;1.45;1.38;;;-0.40;99.90;;;;;;5079399;28;20048;-77
2024/01/13 09:29:58;;;;;;;3.42;3.13;;;-0.40;99.90;;;;;;5082653;28;20032;-78
2024/01/13 09:32:24;;;;;;;1.77;1.17;;;-0.30;99.90;;;;;;5082777;28;20032;-78
2024/01/13 09:34:51;;;;;;;1.33;1.23;;;-0.30;99.90;;;;;;5080465;28;20031;-77
2024/01/13 09:37:17;;;;;;;1.77;1.67;;;-0.30;99.90;;;;;;5080188;28;20079;-76
2024/01/13 09:39:44;;;;;;;3.33;3.13;;;-0.30;99.90;;;;;;5084836;28;20043;-76
2024/01/13 09:42:24;;;;;;;3.35;3.08;;;-0.30;99.90;;;;;;5085466;28;20020;-76
2024/01/13 09:44:50;;;;;;;2.67;2.33;;;-0.30;99.90;;;;;;5061278;28;20457;-76
2024/01/13 09:47:18;;;;;;;3.72;3.40;;;-0.20;99.90;;;;;;5064249;28;20044;-76
2024/01/13 09:49:46;;;;;;;2.05;1.95;;;-0.30;99.90;;;;;;5087875;28;20035;-76
2024/01/13 09:52:13;;;;;;;2.08;1.92;;;-0.20;99.90;;;;;;5087793;28;20039;-75
2024/01/13 09:54:43;;;;;;;5.15;1.70;;;-0.20;99.90;;;;;;5064358;28;20036;-76
2024/01/13 09:57:09;;;;;;;4.10;3.80;;;-0.20;99.90;;;;;;5084549;28;20043;-76
2024/01/13 09:59:38;;;;;;;7.05;5.03;;;-0.20;99.90;;;;;;5086118;28;20028;-76
2024/01/13 10:02:11;;;;;;;3.92;3.63;;;-0.10;99.90;;;;;;5079131;28;20036;-76
2024/01/13 10:04:37;;;;;;;3.38;2.33;;;-0.10;99.90;;;;;;5063654;28;20369;-77
2024/01/13 10:07:04;;;;;;;5.90;4.30;;;0.00;99.90;;;;;;5087462;28;20465;-76
2024/01/13 10:09:30;;;;;;;2.72;2.20;;;-0.10;99.90;;;;;;5084187;28;20032;-77
2024/01/13 10:11:57;;;;;;;4.20;3.45;;;0.00;99.90;;;;;;5073669;28;20051;-77
2024/01/13 10:14:24;;;;;;;3.33;2.90;;;0.00;99.90;;;;;;5091507;28;20036;-76
2024/01/13 10:16:50;;;;;;;14.65;2.75;;;0.00;99.90;;;;;;5097496;28;20028;-77
2024/01/13 10:19:16;;;;;;;7.63;4.10;;;0.00;99.90;;;;;;5104610;28;20032;-77
2024/01/13 10:21:42;;;;;;;7.68;2.55;;;0.00;99.90;;;;;;5088130;28;20038;-78
2024/01/13 10:24:10;;;;;;;1.90;1.73;;;0.00;99.90;;;;;;5086981;28;20033;-77
2024/01/13 10:26:37;;;;;;;6.75;6.18;;;0.00;99.90;;;;;;5086094;28;20032;-77
2024/01/13 10:29:03;;;;;;;4.40;4.03;;;0.10;99.90;;;;;;5078169;28;20052;-77
2024/01/13 10:31:32;;;;;;;2.13;2.03;;;0.10;99.90;;;;;;5095108;28;20047;-77
2024/01/13 10:33:58;;;;;;;7.53;4.30;;;0.20;99.90;;;;;;5104340;28;20020;-77
2024/01/13 10:36:25;;;;;;;6.85;1.98;;;0.20;99.90;;;;;;5081788;28;20056;-76
2024/01/13 10:38:51;;;;;;;4.70;3.35;;;0.30;99.90;;;;;;5097997;28;20502;-77
2024/01/13 10:41:23;;;;;;;5.20;3.28;;;0.30;99.90;;;;;;5093014;28;20038;-77
2024/01/13 10:43:55;;;;;;;4.35;3.20;;;0.30;94.10;;;;;;5088295;28;20043;-77
2024/01/13 10:46:23;;;;;;;4.47;2.55;;;0.40;88.90;;;;;;5077125;28;20500;-76
2024/01/13 10:48:58;;;;;;;2.20;2.00;;;0.30;79.10;;;;;;5091656;28;20307;-76
2024/01/13 10:51:34;;;;;;;1.17;1.08;;;0.30;78.90;;;;;;5099046;28;20013;-77
2024/01/13 10:54:01;;;;;;;2.45;2.28;;;0.40;69.00;;;;;;5096204;28;20039;-78
2024/01/13 10:56:29;;;;;;;1.80;1.65;;;0.40;45.60;;;;;;5103223;28;20031;-76
2024/01/13 10:58:57;;;;;;;5.50;3.58;;;0.40;30.60;;;;;;5104613;28;20039;-76
2024/01/13 11:01:24;;;;;;;4.68;3.80;;;0.40;11.20;;;;;;5084837;28;20036;-76
2024/01/13 11:03:51;;;;;;;1.90;1.77;;;0.40;1.00;;;;;;5104006;28;20038;-77
2024/01/13 11:06:17;;;;;;;1.92;1.83;;;0.40;7.10;;;;;;5105717;28;20028;-77
2024/01/13 11:08:45;;;;;;;2.97;2.72;;;0.40;1.00;;;;;;5068594;28;20122;-76
2024/01/13 11:11:16;;;;;;;0.65;0.65;;;0.50;1.00;;;;;;5094615;28;20032;-78
2024/01/13 11:13:49;;;;;;;1.40;1.30;;;0.40;1.00;;;;;;5080637;28;20370;-76
2024/01/13 11:16:25;;;;;;;2.55;2.35;;;0.40;1.00;;;;;;5103234;28;20035;-77
2024/01/13 11:18:52;;;;;;;5.55;2.92;;;0.50;1.00;;;;;;5099392;28;20052;-76
2024/01/13 11:21:22;;;;;;;5.05;3.03;;;0.50;1.00;;;;;;5092706;28;20830;-76
2024/01/13 11:23:54;;;;;;;2.63;1.50;;;0.50;1.00;;;;;;5100038;28;20025;-77
2024/01/13 11:26:32;;;;;;;1.50;1.40;;;0.40;1.00;;;;;;5094384;28;20028;-76
2024/01/13 11:28:58;;;;;;;2.45;1.70;;;0.40;1.00;;;;;;5101459;28;20035;-75
2024/01/13 11:31:39;;;;;;;8.30;2.05;;;0.40;1.00;;;;;;5106877;28;20024;-74
2024/01/13 11:34:10;;;;;;;1.88;1.67;;;0.50;1.00;;;;;;5102304;28;20058;-75
2024/01/13 11:36:43;;;;;;;1.60;1.50;;;0.50;1.00;;;;;;5103992;28;20063;-76
2024/01/13 11:39:09;;;;;;;0.38;0.38;;;0.40;1.00;;;;;;5087745;28;20036;-77
2024/01/13 11:41:46;;;;;;;1.77;1.13;;;0.40;1.00;;;;;;5106933;28;20035;-77
2024/01/13 11:44:24;;;;;;;3.92;2.80;;;0.40;99.90;;;;;;5102800;28;20031;-76
2024/01/13 11:47:05;;;;;;;1.52;1.15;;;0.40;99.90;;;;;;5095518;28;20499;-77
2024/01/13 11:49:36;;;;;;;4.32;3.67;;;0.40;99.90;;;;;;5092624;28;20035;-77
2024/01/13 11:52:03;;;;;;;2.00;1.65;;;0.40;99.90;;;;;;5101253;28;20023;-77
2024/01/13 11:54:31;;;;;;;2.85;1.67;;;0.50;99.90;;;;;;5103989;28;20024;-77
2024/01/13 11:56:58;;;;;;;2.53;2.33;;;0.50;1.00;;;;;;5101938;28;20024;-76
2024/01/13 11:59:25;;;;;;;3.15;2.58;;;0.50;1.00;;;;;;5081932;28;20045;-77
2024/01/13 12:01:53;;;;;;;2.72;2.53;;;0.50;1.00;;;;;;5099881;28;20046;-76
2024/01/13 12:04:19;;;;;;;1.42;1.35;;;0.50;1.00;;;;;;5087672;28;20036;-76
2024/01/13 12:06:47;;;;;;;2.75;1.52;;;0.50;99.90;;;;;;5092618;28;20024;-76
2024/01/13 12:09:15;;;;;;;2.67;2.20;;;0.50;99.90;;;;;;5092661;28;20036;-73
2024/01/13 12:11:49;;;;;;;3.53;2.55;;;0.50;99.90;;;;;;5079845;28;20047;-75
2024/01/13 12:14:16;;;;;;;2.85;2.67;;;0.50;99.90;;;;;;5100731;28;20060;-76
2024/01/13 12:16:42;;;;;;;1.88;1.77;;;0.50;99.90;;;;;;5099693;28;20055;-73
2024/01/13 12:19:08;;;;;;;1.65;1.40;;;0.50;99.90;;;;;;5097999;28;20053;-74
2024/01/13 12:21:36;;;;;;;0.85;0.43;;;0.50;99.90;;;;;;5100629;28;20036;-77
2024/01/13 12:24:02;;;;;;;0.93;0.93;;;0.50;99.90;;;;;;5102073;28;20031;-75
2024/01/13 12:26:29;;;;;;;4.32;0.55;;;0.40;99.90;;;;;;5098050;28;20028;-75
2024/01/13 12:28:56;;;;;;;0.43;0.43;;;0.40;99.90;;;;;;5089259;28;20035;-74
2024/01/13 12:31:24;;;;;;;0.20;0.20;;;0.40;99.90;;;;;;5104790;28;20023;-75
2024/01/13 12:33:50;;;;;;;0.40;0.40;;;0.30;99.90;;;;;;5101384;28;20032;-74
2024/01/13 12:36:16;;;;;;;1.38;1.17;;;0.30;99.90;;;;;;5103156;28;20042;-76
2024/01/13 12:38:43;;;;;;;0.63;0.63;;;0.30;99.90;;;;;;5099668;28;20151;-74
2024/01/13 12:41:09;;;;;;;1.00;1.00;;;0.30;99.90;;;;;;5089687;28;20024;-73
2024/01/13 12:43:39;;;;;;;1.50;1.42;;;0.30;99.90;;;;;;5087205;28;20489;-74
2024/01/13 12:46:06;;;;;;;0.43;0.43;;;0.30;99.90;;;;;;5079488;28;20032;-73
2024/01/13 12:48:33;;;;;;;0.70;0.65;;;0.20;99.90;;;;;;5072519;28;20051;-74
2024/01/13 12:51:11;;;;;;;1.40;1.30;;;0.30;99.90;;;;;;5081238;28;20044;-74
2024/01/13 12:53:40;;;;;;;1.92;1.83;;;0.30;99.90;;;;;;5081983;28;20041;-74